createdAt,value
2022-08-21T00:00:58.464Z,35.45
2022-08-21T00:03:26.739Z,34.63
2022-08-21T00:05:54.341Z,34.90
2022-08-21T00:08:23.482Z,34.90
2022-08-21T00:10:51.530Z,40.05
2022-08-21T00:13:21.427Z,46.78
2022-08-21T00:15:50.483Z,51.00
2022-08-21T00:18:20.185Z,52.22
2022-08-21T00:20:48.791Z,57.83
2022-08-21T00:23:16.562Z,71.40
2022-08-21T00:25:46.142Z,101.68
2022-08-21T00:28:14.925Z,121.72
2022-08-21T00:30:43.203Z,77.35
2022-08-21T00:33:11.679Z,50.53
2022-08-21T00:35:42.952Z,44.38
2022-08-21T00:38:11.527Z,35.47
2022-08-21T00:40:43.459Z,35.53
2022-08-21T00:43:15.765Z,32.85
2022-08-21T00:45:43.470Z,35.47
2022-08-21T00:48:11.002Z,41.42
2022-08-21T00:50:44.031Z,41.72
2022-08-21T00:53:13.411Z,38.97
2022-08-21T00:55:41.879Z,32.70
2022-08-21T00:58:13.654Z,30.63
2022-08-21T01:00:43.373Z,29.88
2022-08-21T01:03:13.992Z,28.70
2022-08-21T01:05:42.653Z,34.33
2022-08-21T01:08:11.128Z,34.58
2022-08-21T01:10:39.286Z,44.28
2022-08-21T01:13:10.763Z,71.20
2022-08-21T01:15:43.966Z,91.00
2022-08-21T01:18:12.868Z,117.07
2022-08-21T01:20:45.209Z,141.10
2022-08-21T01:23:15.306Z,189.32
2022-08-21T01:25:43.443Z,173.10
2022-08-21T01:28:14.948Z,142.48
2022-08-21T01:30:44.967Z,123.40
2022-08-21T01:33:12.926Z,131.40
2022-08-21T01:35:40.540Z,126.93
2022-08-21T01:38:08.064Z,133.50
2022-08-21T01:40:37.311Z,132.60
2022-08-21T01:43:04.881Z,124.97
2022-08-21T01:45:32.560Z,97.93
2022-08-21T01:48:00.126Z,104.20
2022-08-21T01:50:27.634Z,68.85
2022-08-21T01:52:55.136Z,37.28
2022-08-21T01:55:23.863Z,28.77
2022-08-21T01:57:52.761Z,26.60
2022-08-21T02:00:23.682Z,50.20
2022-08-21T02:02:51.945Z,67.88
2022-08-21T02:05:20.452Z,73.32
2022-08-21T02:07:50.836Z,40.13
2022-08-21T02:10:21.965Z,40.03
2022-08-21T02:12:50.585Z,35.53
2022-08-21T02:15:20.404Z,40.17
2022-08-21T02:17:51.373Z,37.97
2022-08-21T02:20:22.273Z,30.75
2022-08-21T02:22:50.453Z,37.03
2022-08-21T02:25:18.607Z,38.47
2022-08-21T02:27:48.536Z,46.15
2022-08-21T02:30:18.110Z,40.17
2022-08-21T02:32:46.965Z,39.03
2022-08-21T02:35:14.695Z,34.58
2022-08-21T02:37:48.226Z,47.35
2022-08-21T02:40:16.308Z,46.17
2022-08-21T02:42:44.690Z,48.35
2022-08-21T02:45:13.224Z,55.47
2022-08-21T02:47:40.874Z,59.63
2022-08-21T02:50:10.166Z,68.43
2022-08-21T02:52:37.846Z,73.45
2022-08-21T02:55:06.167Z,88.45
2022-08-21T02:57:33.704Z,75.38
2022-08-21T03:00:01.279Z,77.85
2022-08-21T03:02:28.812Z,89.60
2022-08-21T03:04:56.619Z,96.18
2022-08-21T03:07:25.558Z,79.50
2022-08-21T03:09:55.514Z,82.45
2022-08-21T03:12:23.661Z,84.75
2022-08-21T03:14:51.153Z,88.22
2022-08-21T03:17:18.759Z,65.15
2022-08-21T03:19:57.484Z,64.90
2022-08-21T03:22:27.073Z,55.15
2022-08-21T03:24:54.811Z,78.80
2022-08-21T03:27:22.428Z,81.50
2022-08-21T03:29:50.872Z,60.55
2022-08-21T03:32:18.388Z,53.03
2022-08-21T03:34:46.070Z,56.78
2022-08-21T03:37:15.782Z,55.63
2022-08-21T03:39:45.655Z,49.95
2022-08-21T03:42:13.621Z,50.90
2022-08-21T03:44:41.442Z,53.03
2022-08-21T03:47:08.974Z,60.35
2022-08-21T03:49:36.482Z,71.43
2022-08-21T03:52:05.370Z,74.95
2022-08-21T03:54:33.449Z,88.55
2022-08-21T03:57:03.856Z,78.50
2022-08-21T03:59:31.396Z,83.53
2022-08-21T04:02:01.630Z,76.60
2022-08-21T04:04:30.265Z,67.07
2022-08-21T04:06:58.598Z,65.60
2022-08-21T04:09:27.378Z,59.45
2022-08-21T04:11:55.498Z,57.63
2022-08-21T04:14:24.542Z,72.75
2022-08-21T04:16:52.039Z,60.05
2022-08-21T04:19:19.550Z,59.28
2022-08-21T04:21:47.043Z,54.28
2022-08-21T04:24:16.700Z,64.22
2022-08-21T04:26:44.292Z,61.88
2022-08-21T04:29:12.328Z,54.60
2022-08-21T04:31:41.154Z,58.30
2022-08-21T04:34:08.682Z,53.95
2022-08-21T04:36:36.884Z,67.95
2022-08-21T04:39:04.731Z,59.72
2022-08-21T04:41:32.609Z,53.35
2022-08-21T04:44:00.266Z,49.88
2022-08-21T04:46:27.747Z,67.53
2022-08-21T04:48:57.020Z,61.20
2022-08-21T04:51:27.538Z,63.33
2022-08-21T04:54:01.740Z,71.03
2022-08-21T04:56:33.779Z,55.15
2022-08-21T04:59:04.715Z,69.90
2022-08-21T05:01:36.226Z,47.05
2022-08-21T05:04:07.611Z,57.53
2022-08-21T05:06:38.969Z,49.30
2022-08-21T05:09:10.216Z,70.93
2022-08-21T05:11:38.991Z,74.28
2022-08-21T05:14:06.496Z,72.50
2022-08-21T05:16:36.915Z,62.13
2022-08-21T05:19:07.442Z,83.97
2022-08-21T05:21:35.301Z,78.85
2022-08-21T05:24:03.088Z,92.00
2022-08-21T05:26:30.824Z,85.00
2022-08-21T05:28:58.463Z,139.52
2022-08-21T05:31:26.026Z,140.25
2022-08-21T05:33:53.587Z,178.32
2022-08-21T05:36:25.150Z,172.48
2022-08-21T05:38:52.679Z,173.45
2022-08-21T05:41:20.186Z,107.35
2022-08-21T05:43:47.704Z,117.60
2022-08-21T05:46:15.316Z,141.30
2022-08-21T05:48:42.876Z,106.47
2022-08-21T05:51:12.316Z,42.60
2022-08-21T05:53:44.012Z,56.92
2022-08-21T05:56:12.826Z,52.65
2022-08-21T05:58:41.066Z,74.18
2022-08-21T06:01:09.797Z,82.55
2022-08-21T06:03:40.091Z,72.63
2022-08-21T06:06:08.312Z,61.30
2022-08-21T06:08:36.168Z,83.40
2022-08-21T06:11:07.570Z,80.15
2022-08-21T06:13:35.651Z,77.30
2022-08-21T06:16:07.070Z,58.22
2022-08-21T06:18:34.611Z,44.10
2022-08-21T06:21:02.252Z,53.83
2022-08-21T06:23:32.831Z,61.45
2022-08-21T06:26:01.439Z,51.25
2022-08-21T06:28:31.151Z,52.45
2022-08-21T06:30:58.763Z,57.55
2022-08-21T06:33:29.316Z,62.70
2022-08-21T06:36:00.942Z,58.42
2022-08-21T06:38:28.462Z,51.20
2022-08-21T06:40:56.477Z,54.08
2022-08-21T06:43:39.460Z,43.88
2022-08-21T06:46:09.530Z,39.22
2022-08-21T06:48:37.271Z,41.42
2022-08-21T06:51:04.942Z,37.13
2022-08-21T06:53:32.476Z,37.65
2022-08-21T06:56:00.229Z,37.67
2022-08-21T06:58:27.814Z,35.92
2022-08-21T07:01:00.106Z,35.10
2022-08-21T07:03:31.884Z,21.20
2022-08-21T07:05:59.566Z,21.50
2022-08-21T07:08:28.344Z,21.55
2022-08-21T07:10:57.942Z,36.38
2022-08-21T07:13:25.516Z,24.95
2022-08-21T07:15:53.180Z,31.90
2022-08-21T07:18:21.057Z,45.30
2022-08-21T07:20:50.196Z,53.17
2022-08-21T07:23:24.768Z,27.63
2022-08-21T07:25:52.418Z,25.13
2022-08-21T07:28:20.219Z,20.13
2022-08-21T07:30:48.308Z,20.77
2022-08-21T07:33:15.804Z,22.15
2022-08-21T07:35:43.312Z,33.45
2022-08-21T07:38:12.216Z,30.95
2022-08-21T07:40:39.766Z,33.42
2022-08-21T07:43:07.539Z,19.88
2022-08-21T07:45:35.070Z,19.67
2022-08-21T07:48:02.636Z,22.63
2022-08-21T07:50:30.244Z,21.40
2022-08-21T07:52:57.849Z,18.92
2022-08-21T07:55:27.064Z,18.73
2022-08-21T07:57:54.561Z,17.65
2022-08-21T08:00:28.747Z,20.90
2022-08-21T08:02:57.625Z,22.25
2022-08-21T08:05:27.819Z,20.27
2022-08-21T08:07:56.020Z,22.95
2022-08-21T08:10:24.543Z,25.67
2022-08-21T08:12:55.445Z,20.27
2022-08-21T08:15:28.216Z,27.58
2022-08-21T08:17:56.316Z,19.23
2022-08-21T08:20:25.987Z,26.50
2022-08-21T08:22:53.962Z,24.10
2022-08-21T08:25:24.258Z,22.38
2022-08-21T08:27:53.093Z,24.55
2022-08-21T08:30:23.432Z,31.40
2022-08-21T08:32:51.438Z,35.30
2022-08-21T08:35:22.352Z,41.10
2022-08-21T08:37:52.751Z,51.35
2022-08-21T08:40:24.496Z,55.72
2022-08-21T08:42:53.467Z,52.65
2022-08-21T08:45:25.143Z,44.92
2022-08-21T08:47:58.793Z,40.92
2022-08-21T08:50:33.446Z,41.95
2022-08-21T08:53:06.071Z,38.17
2022-08-21T08:55:37.614Z,51.22
2022-08-21T08:58:06.919Z,43.55
2022-08-21T09:00:35.108Z,63.15
2022-08-21T09:03:04.642Z,55.60
2022-08-21T09:05:42.099Z,45.72
2022-08-21T09:08:30.284Z,34.88
2022-08-21T09:11:04.952Z,30.67
2022-08-21T09:13:45.376Z,29.23
2022-08-21T09:16:22.993Z,16.55
2022-08-21T09:19:01.970Z,34.97
2022-08-21T09:21:41.948Z,19.27
2022-08-21T09:24:24.831Z,22.80
2022-08-21T09:26:59.344Z,32.78
2022-08-21T09:29:31.951Z,37.97
2022-08-21T09:31:59.455Z,32.72
2022-08-21T09:34:28.784Z,36.83
2022-08-21T09:36:57.564Z,40.65
2022-08-21T09:39:28.143Z,24.60
2022-08-21T09:42:00.304Z,34.03
2022-08-21T09:44:32.733Z,36.25
2022-08-21T09:47:00.279Z,23.98
2022-08-21T09:49:32.646Z,46.17
2022-08-21T09:52:01.840Z,41.42
2022-08-21T09:54:33.318Z,29.27
2022-08-21T09:57:24.800Z,31.02
2022-08-21T09:59:53.722Z,21.52
2022-08-21T10:02:28.861Z,47.53
2022-08-21T10:04:59.623Z,39.88
2022-08-21T10:07:29.963Z,22.45
2022-08-21T10:10:03.154Z,20.33
2022-08-21T10:12:38.784Z,16.70
2022-08-21T10:15:20.691Z,16.10
2022-08-21T10:17:59.715Z,24.13
2022-08-21T10:20:32.687Z,18.02
2022-08-21T10:23:11.224Z,22.83
2022-08-21T10:25:56.273Z,18.77
2022-08-21T10:28:37.817Z,20.42
2022-08-21T10:31:29.303Z,21.02
2022-08-21T10:34:12.659Z,19.20
2022-08-21T10:36:50.577Z,25.85
2022-08-21T10:39:35.731Z,27.52
2022-08-21T10:42:33.463Z,52.05
2022-08-21T10:45:16.938Z,42.53
2022-08-21T10:47:49.955Z,38.30
2022-08-21T10:50:30.687Z,35.60
2022-08-21T10:53:13.732Z,21.55
2022-08-21T10:55:45.725Z,17.95
2022-08-21T10:58:16.528Z,24.38
2022-08-21T11:00:51.569Z,21.10
2022-08-21T11:03:26.165Z,23.52
2022-08-21T11:05:55.723Z,21.77
2022-08-21T11:08:27.046Z,20.20
2022-08-21T11:11:01.515Z,18.63
2022-08-21T11:13:39.295Z,19.23
2022-08-21T11:16:12.927Z,19.23
2022-08-21T11:18:45.886Z,39.17
2022-08-21T11:21:29.363Z,19.55
2022-08-21T11:24:04.629Z,17.67
2022-08-21T11:26:53.064Z,15.93
2022-08-21T11:29:25.671Z,21.50
2022-08-21T11:32:14.476Z,25.63
2022-08-21T11:34:58.214Z,17.83
2022-08-21T11:37:48.911Z,18.23
2022-08-21T11:40:26.566Z,17.27
2022-08-21T11:43:02.419Z,17.50
2022-08-21T11:45:41.727Z,14.77
2022-08-21T11:48:18.974Z,20.63
2022-08-21T11:50:50.588Z,29.73
2022-08-21T11:53:22.303Z,13.20
2022-08-21T11:55:55.114Z,19.55
2022-08-21T11:58:27.670Z,27.20
2022-08-21T12:00:59.290Z,10.57
2022-08-21T12:03:31.001Z,12.00
2022-08-21T12:06:03.863Z,18.92
2022-08-21T12:08:35.797Z,18.80
2022-08-21T12:11:08.638Z,16.02
2022-08-21T12:13:42.704Z,13.85
2022-08-21T12:16:13.171Z,17.92
2022-08-21T12:18:41.114Z,10.95
2022-08-21T12:21:23.862Z,8.82
2022-08-21T12:24:02.562Z,15.43
2022-08-21T12:26:32.724Z,8.90
2022-08-21T12:29:12.643Z,10.15
2022-08-21T12:31:51.968Z,9.63
2022-08-21T12:34:21.904Z,11.55
2022-08-21T12:36:57.547Z,13.02
2022-08-21T12:39:29.483Z,9.10
2022-08-21T12:42:02.442Z,10.43
2022-08-21T12:44:36.558Z,8.25
2022-08-21T12:47:07.140Z,31.48
2022-08-21T12:49:39.004Z,15.38
2022-08-21T12:52:15.975Z,10.68
2022-08-21T12:54:45.774Z,8.60
2022-08-21T12:57:23.088Z,32.17
2022-08-21T12:59:59.388Z,9.55
2022-08-21T13:02:30.454Z,22.85
2022-08-21T13:04:58.965Z,10.85
2022-08-21T13:07:31.442Z,15.52
2022-08-21T13:10:02.423Z,25.40
2022-08-21T13:12:32.471Z,21.45
2022-08-21T13:15:02.466Z,6.53
2022-08-21T13:17:34.218Z,14.02
2022-08-21T13:20:04.828Z,8.85
2022-08-21T13:22:37.811Z,9.48
2022-08-21T13:25:11.990Z,7.07
2022-08-21T13:27:39.747Z,7.03
2022-08-21T13:30:11.986Z,7.05
2022-08-21T13:32:46.024Z,9.80
2022-08-21T13:35:17.648Z,23.48
2022-08-21T13:37:49.126Z,15.10
2022-08-21T13:40:19.597Z,7.90
2022-08-21T13:42:49.230Z,8.98
2022-08-21T13:45:20.859Z,6.93
2022-08-21T13:47:49.484Z,6.85
2022-08-21T13:50:20.002Z,9.05
2022-08-21T13:52:58.833Z,7.53
2022-08-21T13:55:28.494Z,6.47
2022-08-21T13:58:03.070Z,8.98
2022-08-21T14:00:36.006Z,8.05
2022-08-21T14:03:07.833Z,7.85
2022-08-21T14:05:38.911Z,6.47
2022-08-21T14:08:12.679Z,17.20
2022-08-21T14:10:45.797Z,9.27
2022-08-21T14:13:31.529Z,7.45
2022-08-21T14:16:02.615Z,6.85
2022-08-21T14:18:30.748Z,6.28
2022-08-21T14:21:07.333Z,7.53
2022-08-21T14:23:36.149Z,6.55
2022-08-21T14:26:07.681Z,7.32
2022-08-21T14:28:39.562Z,6.70
2022-08-21T14:31:18.092Z,6.90
2022-08-21T14:33:47.217Z,6.47
2022-08-21T14:36:14.919Z,6.20
2022-08-21T14:38:44.260Z,6.78
2022-08-21T14:41:18.114Z,6.93
2022-08-21T14:43:47.123Z,5.20
2022-08-21T14:46:15.737Z,5.13
2022-08-21T14:48:43.764Z,6.40
2022-08-21T14:51:11.396Z,5.53
2022-08-21T14:53:38.912Z,6.28
2022-08-21T14:56:08.579Z,7.30
2022-08-21T14:58:39.010Z,6.65
2022-08-21T15:01:08.095Z,4.80
2022-08-21T15:03:36.358Z,3.95
2022-08-21T15:06:05.903Z,6.25
2022-08-21T15:08:34.046Z,5.47
2022-08-21T15:11:42.259Z,5.25
2022-08-21T15:13:57.251Z,17.05
2022-08-21T15:16:25.000Z,4.93
2022-08-21T15:18:52.604Z,16.38
2022-08-21T15:21:20.154Z,21.13
2022-08-21T15:23:47.813Z,11.43
2022-08-21T15:26:15.696Z,13.15
2022-08-21T15:28:43.332Z,8.23
2022-08-21T15:31:12.201Z,7.63
2022-08-21T15:33:39.684Z,8.85
2022-08-21T15:36:07.662Z,6.38
2022-08-21T15:38:35.304Z,13.57
2022-08-21T15:41:04.352Z,6.90
2022-08-21T15:43:40.126Z,7.13
2022-08-21T15:46:07.728Z,13.93
2022-08-21T15:48:36.612Z,19.50
2022-08-21T15:51:04.267Z,6.85
2022-08-21T15:53:32.928Z,6.55
2022-08-21T15:56:03.716Z,6.10
2022-08-21T15:58:31.237Z,6.07
2022-08-21T16:01:01.638Z,8.60
2022-08-21T16:03:29.919Z,12.48
2022-08-21T16:05:58.763Z,18.20
2022-08-21T16:08:26.576Z,18.63
2022-08-21T16:10:54.961Z,13.35
2022-08-21T16:13:26.892Z,14.93
2022-08-21T16:15:54.565Z,16.85
2022-08-21T16:18:24.048Z,7.25
2022-08-21T16:20:51.636Z,12.98
2022-08-21T16:23:20.511Z,7.03
2022-08-21T16:25:48.950Z,10.68
2022-08-21T16:28:19.040Z,9.85
2022-08-21T16:30:49.207Z,8.48
2022-08-21T16:33:25.023Z,6.85
2022-08-21T16:35:52.798Z,11.68
2022-08-21T16:38:21.859Z,6.05
2022-08-21T16:40:49.422Z,13.88
2022-08-21T16:43:17.485Z,18.08
2022-08-21T16:45:45.162Z,14.55
2022-08-21T16:48:12.688Z,7.45
2022-08-21T16:50:40.332Z,8.02
2022-08-21T16:53:08.555Z,8.07
2022-08-21T16:55:38.250Z,9.73
2022-08-21T16:58:11.311Z,6.90
2022-08-21T17:00:38.837Z,6.68
2022-08-21T17:03:06.407Z,7.25
2022-08-21T17:05:33.904Z,5.78
2022-08-21T17:08:01.445Z,5.82
2022-08-21T17:10:28.966Z,6.43
2022-08-21T17:13:00.807Z,7.53
2022-08-21T17:15:39.111Z,12.60
2022-08-21T17:18:09.947Z,5.72
2022-08-21T17:20:37.677Z,6.63
2022-08-21T17:23:06.483Z,5.85
2022-08-21T17:25:34.659Z,5.78
2022-08-21T17:28:04.235Z,6.15
2022-08-21T17:30:31.838Z,4.13
2022-08-21T17:33:01.015Z,4.32
2022-08-21T17:35:28.662Z,4.60
2022-08-21T17:37:57.039Z,5.18
2022-08-21T17:40:24.988Z,5.28
2022-08-21T17:42:52.630Z,4.68
2022-08-21T17:45:22.098Z,4.95
2022-08-21T17:47:49.650Z,4.68
2022-08-21T17:50:22.867Z,4.68
2022-08-21T17:52:50.687Z,4.40
2022-08-21T17:55:20.273Z,4.50
2022-08-21T17:57:50.878Z,4.43
2022-08-21T18:00:20.444Z,4.53
2022-08-21T18:02:57.559Z,4.10
2022-08-21T18:05:25.186Z,4.00
2022-08-21T18:07:52.715Z,4.32
2022-08-21T18:10:20.295Z,6.47
2022-08-21T18:12:47.988Z,4.60
2022-08-21T18:15:19.008Z,5.22
2022-08-21T18:17:51.224Z,5.75
2022-08-21T18:20:20.911Z,5.38
2022-08-21T18:22:48.655Z,7.85
2022-08-21T18:25:17.245Z,7.78
2022-08-21T18:27:46.693Z,9.40
2022-08-21T18:30:16.702Z,6.20
2022-08-21T18:32:44.750Z,7.45
2022-08-21T18:35:15.487Z,10.50
2022-08-21T18:37:42.999Z,17.30
2022-08-21T18:40:11.791Z,36.30
2022-08-21T18:42:43.303Z,26.27
2022-08-21T18:45:22.971Z,18.73
2022-08-21T18:47:53.321Z,18.60
2022-08-21T18:50:26.425Z,37.35
2022-08-21T18:52:54.501Z,38.20
2022-08-21T18:55:24.701Z,62.35
2022-08-21T18:57:52.531Z,59.83
2022-08-21T19:00:26.612Z,55.47
2022-08-21T19:02:54.766Z,48.95
2022-08-21T19:05:25.251Z,61.55
2022-08-21T19:07:55.023Z,89.22
2022-08-21T19:13:12.385Z,68.78
2022-08-21T19:15:42.446Z,89.30
2022-08-21T19:18:13.028Z,76.47
2022-08-21T19:20:44.539Z,60.75
2022-08-21T19:23:17.357Z,75.18
2022-08-21T19:25:51.719Z,93.95
2022-08-21T19:28:27.034Z,27.85
2022-08-21T19:30:58.400Z,88.90
2022-08-21T19:33:36.278Z,125.97
2022-08-21T19:36:06.100Z,96.72
2022-08-21T19:38:33.955Z,76.85
2022-08-21T19:41:02.543Z,112.05
2022-08-21T19:43:32.623Z,90.18
2022-08-21T19:46:01.711Z,100.15
2022-08-21T19:48:29.262Z,83.80
2022-08-21T19:50:56.771Z,81.07
2022-08-21T19:53:26.538Z,78.80
2022-08-21T19:55:54.571Z,58.15
2022-08-21T19:58:29.217Z,53.88
2022-08-21T20:00:56.760Z,39.53
2022-08-21T20:03:24.495Z,76.80
2022-08-21T20:05:52.166Z,85.00
2022-08-21T20:08:21.787Z,53.33
2022-08-21T20:10:51.551Z,44.35
2022-08-21T20:13:21.565Z,38.22
2022-08-21T20:15:50.114Z,51.65
2022-08-21T20:18:18.627Z,47.25
2022-08-21T20:20:47.719Z,69.05
2022-08-21T20:23:17.309Z,50.97
2022-08-21T20:25:59.391Z,49.65
2022-08-21T20:28:27.080Z,52.40
2022-08-21T20:30:56.418Z,35.65
2022-08-21T20:33:23.961Z,36.70
2022-08-21T20:35:52.199Z,37.80
2022-08-21T20:38:20.410Z,33.22
2022-08-21T20:40:50.530Z,38.97
2022-08-21T20:43:20.838Z,41.53
2022-08-21T20:45:49.627Z,39.60
2022-08-21T20:48:23.782Z,21.95
2022-08-21T20:51:06.736Z,27.30
2022-08-21T20:53:43.460Z,23.85
2022-08-21T20:56:16.394Z,25.48
2022-08-21T20:58:56.069Z,25.05
2022-08-21T21:01:24.279Z,39.85
2022-08-21T21:03:56.931Z,46.85
2022-08-21T21:06:29.115Z,36.60
2022-08-21T21:09:05.397Z,34.78
2022-08-21T21:11:38.310Z,37.78
2022-08-21T21:14:12.312Z,32.75
2022-08-21T21:16:45.900Z,39.00
2022-08-21T21:19:26.604Z,50.25
2022-08-21T21:21:59.527Z,41.80
2022-08-21T21:24:32.940Z,38.55
2022-08-21T21:27:11.625Z,42.88
2022-08-21T21:29:46.146Z,39.53
2022-08-21T21:32:17.774Z,26.63
2022-08-21T21:34:50.939Z,21.08
2022-08-21T21:37:25.868Z,34.35
2022-08-21T21:40:01.568Z,33.97
2022-08-21T21:42:38.253Z,47.97
2022-08-21T21:45:21.100Z,41.60
2022-08-21T21:48:04.134Z,16.98
2022-08-21T21:50:49.402Z,12.00
2022-08-21T21:53:35.524Z,12.40
2022-08-21T21:56:16.440Z,11.57
2022-08-21T21:59:09.806Z,16.30
2022-08-21T22:01:46.814Z,11.65
2022-08-21T22:04:23.572Z,11.70
2022-08-21T22:07:06.164Z,33.00
2022-08-21T22:09:44.304Z,16.25
2022-08-21T22:12:28.720Z,13.98
2022-08-21T22:14:56.547Z,18.48
2022-08-21T22:17:34.933Z,13.65
2022-08-21T22:20:08.543Z,27.08
2022-08-21T22:22:40.530Z,37.00
2022-08-21T22:25:18.358Z,32.47
2022-08-21T22:27:50.036Z,26.52
2022-08-21T22:30:37.490Z,22.98
2022-08-21T22:33:14.312Z,18.77
2022-08-21T22:35:42.157Z,16.40
2022-08-21T22:38:19.647Z,20.70
2022-08-21T22:40:50.508Z,18.95
2022-08-21T22:43:20.943Z,20.48
2022-08-21T22:45:58.780Z,19.33
2022-08-21T22:51:30.037Z,24.77
2022-08-21T22:54:00.994Z,17.23
2022-08-21T22:56:32.550Z,18.23
2022-08-21T22:59:03.555Z,20.77
2022-08-21T23:01:36.409Z,29.50
2022-08-21T23:04:18.632Z,18.00
2022-08-21T23:06:49.312Z,21.25
2022-08-21T23:09:29.427Z,17.50
2022-08-21T23:11:59.417Z,16.60
2022-08-21T23:14:28.993Z,14.88
2022-08-21T23:17:00.679Z,15.18
2022-08-21T23:19:39.377Z,20.02
2022-08-21T23:22:21.154Z,28.42
2022-08-21T23:25:02.364Z,16.55
2022-08-21T23:27:42.283Z,20.25
2022-08-21T23:30:15.137Z,21.15
2022-08-21T23:33:01.940Z,12.98
2022-08-21T23:35:51.814Z,13.68
2022-08-21T23:38:33.100Z,13.95
2022-08-21T23:41:11.419Z,15.65
2022-08-21T23:43:52.015Z,13.13
2022-08-21T23:46:43.842Z,15.75
2022-08-21T23:49:25.645Z,13.80
2022-08-21T23:52:06.896Z,14.48
2022-08-21T23:54:45.822Z,16.20
2022-08-21T23:57:31.882Z,13.55
